Kezdőlap
METAR-TAF:

METAR-TAF

Repülőterek :

Central Park

New York, New York, Amerikai Egyesült Államok

földrajzi szélesség: 40-47-00N, földrajzi hosszúság: 073-58-00W, magasság: 47 m

Jelenlegi meteorológiai megfigyelések

A jelentés 41 perccel ezelõtt készült, 17:51 UTC
Különbözõ irányokból fújó szél 4 kt
Hőmérséklet 12°C
Páratartalom 17%
Légköri nyomás 1022 hPa
Látótávolság: 16.1 km
Derült ég

METAR: KNYC 231751Z AUTO VRB04KT 10SM CLR 12/M12 A3017 RMK AO2 SLP207 T01171122 10117 20039 58022 $

Idő: 13:32 (18:32 UTC)


TAF: hiányzik

Meteorológiai megfigyelések és előrejelzések több, mint 4000 repülőtéren (METAR és TAF jelentéseket).

A térképen piros és sárga pontok jelzik az elérhető meteorológiai állomásokat.

Mozgassa az egeret a pont fölött, hogy megjelenjen az állomás neve.

Azután kattintson az időjárási megfigyelések és előrejelzések megtekintéséhez.

A térkép megváltoztatása: kattintson a fekete keresztel jelölt zöld gombra ráközelítéshez, a vonallal jelölt zöld gombra távolításhoz, vagy a zöld nyilakra a szomszédos térképek eléréséhez.


METAR-TAF: